sensor_id;sensor_type;location;lat;lon;timestamp;P1;durP1;ratioP1;P2;durP2;ratioP2
55206;SDS011;41079;52.856;6.534;2022-08-01T00:00:31;802.53;;;298.52;;
55206;SDS011;41079;52.856;6.534;2022-08-01T00:02:57;796.88;;;292.42;;
55206;SDS011;41079;52.856;6.534;2022-08-01T00:05:23;799.55;;;294.75;;
55206;SDS011;41079;52.856;6.534;2022-08-01T00:07:48;803.88;;;299.33;;
55206;SDS011;41079;52.856;6.534;2022-08-01T00:10:15;797.55;;;293.85;;
55206;SDS011;41079;52.856;6.534;2022-08-01T00:12:42;797.47;;;294.02;;
55206;SDS011;41079;52.856;6.534;2022-08-01T00:15:10;800.25;;;296.48;;
55206;SDS011;41079;52.856;6.534;2022-08-01T00:17:37;800.67;;;296.60;;
55206;SDS011;41079;52.856;6.534;2022-08-01T00:20:04;801.55;;;296.75;;
55206;SDS011;41079;52.856;6.534;2022-08-01T00:22:31;804.42;;;300.27;;
55206;SDS011;41079;52.856;6.534;2022-08-01T00:24:57;802.38;;;300.65;;
55206;SDS011;41079;52.856;6.534;2022-08-01T00:27:22;801.72;;;298.55;;
55206;SDS011;41079;52.856;6.534;2022-08-01T00:29:48;798.72;;;295.67;;
55206;SDS011;41079;52.856;6.534;2022-08-01T00:32:14;796.55;;;293.58;;
55206;SDS011;41079;52.856;6.534;2022-08-01T00:34:39;797.70;;;295.13;;
55206;SDS011;41079;52.856;6.534;2022-08-01T00:37:05;803.20;;;300.58;;
55206;SDS011;41079;52.856;6.534;2022-08-01T00:39:30;799.80;;;297.50;;
55206;SDS011;41079;52.856;6.534;2022-08-01T00:41:58;798.00;;;295.38;;
55206;SDS011;41079;52.856;6.534;2022-08-01T00:44:24;801.20;;;298.75;;
55206;SDS011;41079;52.856;6.534;2022-08-01T00:46:50;800.22;;;298.35;;
55206;SDS011;41079;52.856;6.534;2022-08-01T00:49:15;803.60;;;301.55;;
55206;SDS011;41079;52.856;6.534;2022-08-01T00:51:41;806.67;;;303.90;;
55206;SDS011;41079;52.856;6.534;2022-08-01T00:54:07;800.22;;;297.50;;
55206;SDS011;41079;52.856;6.534;2022-08-01T00:56:32;793.83;;;291.00;;
55206;SDS011;41079;52.856;6.534;2022-08-01T00:58:58;806.70;;;304.17;;
55206;SDS011;41079;52.856;6.534;2022-08-01T01:01:24;799.20;;;297.08;;
55206;SDS011;41079;52.856;6.534;2022-08-01T01:03:50;798.92;;;296.90;;
55206;SDS011;41079;52.856;6.534;2022-08-01T01:08:55;798.53;;;297.10;;
55206;SDS011;41079;52.856;6.534;2022-08-01T01:11:36;806.60;;;305.63;;
55206;SDS011;41079;52.856;6.534;2022-08-01T01:14:14;798.20;;;296.95;;
55206;SDS011;41079;52.856;6.534;2022-08-01T01:16:52;800.83;;;299.63;;
55206;SDS011;41079;52.856;6.534;2022-08-01T01:19:21;801.45;;;300.48;;
55206;SDS011;41079;52.856;6.534;2022-08-01T01:22:36;799.33;;;298.70;;
55206;SDS011;41079;52.856;6.534;2022-08-01T01:27:32;797.85;;;297.65;;
55206;SDS011;41079;52.856;6.534;2022-08-01T01:30:10;795.80;;;295.08;;
55206;SDS011;41079;52.856;6.534;2022-08-01T01:32:38;808.20;;;307.70;;
55206;SDS011;41079;52.856;6.534;2022-08-01T01:35:08;800.75;;;300.98;;
55206;SDS011;41079;52.856;6.534;2022-08-01T01:37:38;792.28;;;292.15;;
55206;SDS011;41079;52.856;6.534;2022-08-01T01:40:05;798.25;;;297.20;;
55206;SDS011;41079;52.856;6.534;2022-08-01T01:42:32;800.42;;;299.20;;
55206;SDS011;41079;52.856;6.534;2022-08-01T01:45:00;800.58;;;299.58;;
55206;SDS011;41079;52.856;6.534;2022-08-01T01:47:27;794.65;;;295.23;;
55206;SDS011;41079;52.856;6.534;2022-08-01T01:49:54;796.25;;;295.83;;
55206;SDS011;41079;52.856;6.534;2022-08-01T01:52:21;792.95;;;293.52;;
55206;SDS011;41079;52.856;6.534;2022-08-01T01:54:49;796.20;;;295.92;;
55206;SDS011;41079;52.856;6.534;2022-08-01T01:57:17;805.63;;;305.25;;
55206;SDS011;41079;52.856;6.534;2022-08-01T01:59:44;797.25;;;296.73;;
55206;SDS011;41079;52.856;6.534;2022-08-01T02:02:12;803.08;;;304.33;;
55206;SDS011;41079;52.856;6.534;2022-08-01T02:04:41;800.65;;;301.05;;
55206;SDS011;41079;52.856;6.534;2022-08-01T02:07:09;806.42;;;307.15;;
55206;SDS011;41079;52.856;6.534;2022-08-01T02:09:38;793.25;;;294.08;;
55206;SDS011;41079;52.856;6.534;2022-08-01T02:12:06;798.88;;;300.30;;
55206;SDS011;41079;52.856;6.534;2022-08-01T02:14:35;796.42;;;297.00;;
55206;SDS011;41079;52.856;6.534;2022-08-01T02:17:01;809.65;;;310.92;;
55206;SDS011;41079;52.856;6.534;2022-08-01T02:19:28;802.22;;;302.52;;
55206;SDS011;41079;52.856;6.534;2022-08-01T02:21:55;801.17;;;300.83;;
55206;SDS011;41079;52.856;6.534;2022-08-01T02:24:31;806.13;;;307.58;;
55206;SDS011;41079;52.856;6.534;2022-08-01T02:27:03;801.58;;;303.73;;
55206;SDS011;41079;52.856;6.534;2022-08-01T02:29:33;804.53;;;305.63;;
55206;SDS011;41079;52.856;6.534;2022-08-01T02:32:04;799.90;;;302.70;;
55206;SDS011;41079;52.856;6.534;2022-08-01T02:34:32;801.75;;;303.15;;
55206;SDS011;41079;52.856;6.534;2022-08-01T02:37:00;806.13;;;306.98;;
55206;SDS011;41079;52.856;6.534;2022-08-01T02:39:29;800.13;;;302.02;;
55206;SDS011;41079;52.856;6.534;2022-08-01T02:41:57;804.42;;;304.63;;
55206;SDS011;41079;52.856;6.534;2022-08-01T02:44:28;804.53;;;306.33;;
55206;SDS011;41079;52.856;6.534;2022-08-01T02:46:58;802.72;;;304.23;;
55206;SDS011;41079;52.856;6.534;2022-08-01T02:49:27;803.05;;;305.38;;
55206;SDS011;41079;52.856;6.534;2022-08-01T02:51:58;800.45;;;301.00;;
55206;SDS011;41079;52.856;6.534;2022-08-01T02:54:26;800.40;;;301.95;;
55206;SDS011;41079;52.856;6.534;2022-08-01T02:56:54;804.08;;;305.83;;
55206;SDS011;41079;52.856;6.534;2022-08-01T02:59:21;803.55;;;306.20;;
55206;SDS011;41079;52.856;6.534;2022-08-01T03:01:53;803.22;;;306.38;;
55206;SDS011;41079;52.856;6.534;2022-08-01T03:04:21;796.53;;;300.42;;
55206;SDS011;41079;52.856;6.534;2022-08-01T03:06:49;803.60;;;306.30;;
55206;SDS011;41079;52.856;6.534;2022-08-01T03:09:17;802.15;;;307.33;;
55206;SDS011;41079;52.856;6.534;2022-08-01T03:11:44;798.38;;;303.13;;
55206;SDS011;41079;52.856;6.534;2022-08-01T03:14:11;809.72;;;314.58;;
55206;SDS011;41079;52.856;6.534;2022-08-01T03:16:38;800.15;;;305.05;;
55206;SDS011;41079;52.856;6.534;2022-08-01T03:19:07;799.28;;;304.27;;
55206;SDS011;41079;52.856;6.534;2022-08-01T03:21:34;799.25;;;304.73;;
55206;SDS011;41079;52.856;6.534;2022-08-01T03:24:02;805.28;;;311.20;;
55206;SDS011;41079;52.856;6.534;2022-08-01T03:26:30;797.63;;;302.83;;
55206;SDS011;41079;52.856;6.534;2022-08-01T03:29:00;793.28;;;299.38;;
55206;SDS011;41079;52.856;6.534;2022-08-01T03:31:31;795.33;;;300.50;;
55206;SDS011;41079;52.856;6.534;2022-08-01T03:34:03;798.35;;;303.67;;
55206;SDS011;41079;52.856;6.534;2022-08-01T03:36:30;795.33;;;300.98;;
55206;SDS011;41079;52.856;6.534;2022-08-01T03:38:59;795.97;;;301.65;;
55206;SDS011;41079;52.856;6.534;2022-08-01T03:41:29;795.83;;;301.10;;
55206;SDS011;41079;52.856;6.534;2022-08-01T03:44:03;805.70;;;311.95;;
55206;SDS011;41079;52.856;6.534;2022-08-01T03:46:33;796.60;;;302.38;;
55206;SDS011;41079;52.856;6.534;2022-08-01T03:49:04;804.90;;;310.40;;
55206;SDS011;41079;52.856;6.534;2022-08-01T03:51:35;797.85;;;304.73;;
55206;SDS011;41079;52.856;6.534;2022-08-01T03:54:02;800.47;;;307.65;;
55206;SDS011;41079;52.856;6.534;2022-08-01T03:56:30;802.58;;;308.73;;
55206;SDS011;41079;52.856;6.534;2022-08-01T03:58:58;795.42;;;302.23;;
55206;SDS011;41079;52.856;6.534;2022-08-01T04:01:24;804.47;;;311.70;;
55206;SDS011;41079;52.856;6.534;2022-08-01T04:03:51;800.97;;;307.98;;
55206;SDS011;41079;52.856;6.534;2022-08-01T04:06:17;798.17;;;303.75;;
55206;SDS011;41079;52.856;6.534;2022-08-01T04:08:43;794.95;;;300.30;;
55206;SDS011;41079;52.856;6.534;2022-08-01T04:11:20;805.88;;;314.67;;
55206;SDS011;41079;52.856;6.534;2022-08-01T04:13:47;799.85;;;307.13;;
55206;SDS011;41079;52.856;6.534;2022-08-01T04:16:13;800.33;;;308.58;;
55206;SDS011;41079;52.856;6.534;2022-08-01T04:18:39;800.90;;;310.08;;
55206;SDS011;41079;52.856;6.534;2022-08-01T04:21:04;804.95;;;312.85;;
55206;SDS011;41079;52.856;6.534;2022-08-01T04:23:30;797.63;;;305.77;;
55206;SDS011;41079;52.856;6.534;2022-08-01T04:25:59;794.17;;;302.42;;
55206;SDS011;41079;52.856;6.534;2022-08-01T04:28:29;808.97;;;319.67;;
55206;SDS011;41079;52.856;6.534;2022-08-01T04:30:58;803.22;;;310.42;;
55206;SDS011;41079;52.856;6.534;2022-08-01T04:33:24;800.72;;;307.85;;
55206;SDS011;41079;52.856;6.534;2022-08-01T04:35:53;800.38;;;308.67;;
55206;SDS011;41079;52.856;6.534;2022-08-01T04:38:22;805.15;;;313.83;;
55206;SDS011;41079;52.856;6.534;2022-08-01T04:43:17;796.72;;;306.83;;
55206;SDS011;41079;52.856;6.534;2022-08-01T04:45:43;796.03;;;304.63;;
55206;SDS011;41079;52.856;6.534;2022-08-01T04:48:15;807.28;;;317.30;;
55206;SDS011;41079;52.856;6.534;2022-08-01T04:50:44;802.22;;;312.30;;
55206;SDS011;41079;52.856;6.534;2022-08-01T04:53:16;796.67;;;305.45;;
55206;SDS011;41079;52.856;6.534;2022-08-01T04:55:43;799.75;;;309.40;;
55206;SDS011;41079;52.856;6.534;2022-08-01T04:58:11;802.03;;;310.00;;
55206;SDS011;41079;52.856;6.534;2022-08-01T05:00:37;796.08;;;306.20;;
55206;SDS011;41079;52.856;6.534;2022-08-01T05:03:03;794.58;;;303.52;;
55206;SDS011;41079;52.856;6.534;2022-08-01T05:05:28;796.22;;;304.83;;
55206;SDS011;41079;52.856;6.534;2022-08-01T05:07:55;799.30;;;310.10;;
55206;SDS011;41079;52.856;6.534;2022-08-01T05:10:21;799.67;;;309.92;;
55206;SDS011;41079;52.856;6.534;2022-08-01T05:12:46;800.13;;;310.08;;
55206;SDS011;41079;52.856;6.534;2022-08-01T05:15:12;800.15;;;310.95;;
55206;SDS011;41079;52.856;6.534;2022-08-01T05:17:38;800.53;;;312.45;;
55206;SDS011;41079;52.856;6.534;2022-08-01T05:20:03;799.35;;;309.92;;
55206;SDS011;41079;52.856;6.534;2022-08-01T05:22:31;800.83;;;311.08;;
55206;SDS011;41079;52.856;6.534;2022-08-01T05:24:57;796.75;;;308.00;;
55206;SDS011;41079;52.856;6.534;2022-08-01T05:27:22;804.30;;;314.73;;
55206;SDS011;41079;52.856;6.534;2022-08-01T05:29:48;803.08;;;315.05;;
55206;SDS011;41079;52.856;6.534;2022-08-01T05:32:13;803.58;;;315.67;;
55206;SDS011;41079;52.856;6.534;2022-08-01T05:34:39;800.03;;;311.48;;
55206;SDS011;41079;52.856;6.534;2022-08-01T05:37:04;794.40;;;304.42;;
55206;SDS011;41079;52.856;6.534;2022-08-01T05:39:30;804.78;;;316.38;;
55206;SDS011;41079;52.856;6.534;2022-08-01T05:41:55;797.20;;;308.40;;
55206;SDS011;41079;52.856;6.534;2022-08-01T05:44:21;799.85;;;311.23;;
55206;SDS011;41079;52.856;6.534;2022-08-01T05:46:46;798.05;;;307.50;;
55206;SDS011;41079;52.856;6.534;2022-08-01T05:49:12;803.83;;;313.85;;
55206;SDS011;41079;52.856;6.534;2022-08-01T05:51:38;800.85;;;310.83;;
55206;SDS011;41079;52.856;6.534;2022-08-01T05:54:03;800.15;;;310.63;;
55206;SDS011;41079;52.856;6.534;2022-08-01T05:56:29;794.40;;;304.58;;
55206;SDS011;41079;52.856;6.534;2022-08-01T05:58:55;798.92;;;309.23;;
55206;SDS011;41079;52.856;6.534;2022-08-01T06:01:20;799.00;;;310.55;;
55206;SDS011;41079;52.856;6.534;2022-08-01T06:03:46;797.75;;;308.80;;
55206;SDS011;41079;52.856;6.534;2022-08-01T06:06:12;803.42;;;313.83;;
55206;SDS011;41079;52.856;6.534;2022-08-01T06:08:39;799.72;;;310.95;;
55206;SDS011;41079;52.856;6.534;2022-08-01T06:11:04;805.80;;;317.35;;
55206;SDS011;41079;52.856;6.534;2022-08-01T06:13:30;797.88;;;307.77;;
55206;SDS011;41079;52.856;6.534;2022-08-01T06:15:56;800.92;;;310.20;;
55206;SDS011;41079;52.856;6.534;2022-08-01T06:18:22;795.53;;;303.85;;
55206;SDS011;41079;52.856;6.534;2022-08-01T06:20:47;802.85;;;310.98;;
55206;SDS011;41079;52.856;6.534;2022-08-01T06:23:13;798.85;;;307.15;;
55206;SDS011;41079;52.856;6.534;2022-08-01T06:25:41;794.70;;;303.50;;
55206;SDS011;41079;52.856;6.534;2022-08-01T06:28:07;796.65;;;304.08;;
55206;SDS011;41079;52.856;6.534;2022-08-01T06:30:32;798.22;;;305.80;;
55206;SDS011;41079;52.856;6.534;2022-08-01T06:32:59;795.95;;;302.73;;
55206;SDS011;41079;52.856;6.534;2022-08-01T06:35:25;795.65;;;301.15;;
55206;SDS011;41079;52.856;6.534;2022-08-01T06:37:52;794.90;;;302.60;;
55206;SDS011;41079;52.856;6.534;2022-08-01T06:40:17;798.10;;;305.52;;
55206;SDS011;41079;52.856;6.534;2022-08-01T06:42:43;794.63;;;300.95;;
55206;SDS011;41079;52.856;6.534;2022-08-01T06:45:11;796.22;;;301.13;;
55206;SDS011;41079;52.856;6.534;2022-08-01T06:47:40;801.28;;;308.45;;
55206;SDS011;41079;52.856;6.534;2022-08-01T06:50:07;799.35;;;305.17;;
55206;SDS011;41079;52.856;6.534;2022-08-01T06:52:34;794.88;;;299.77;;
55206;SDS011;41079;52.856;6.534;2022-08-01T06:55:00;795.95;;;301.75;;
55206;SDS011;41079;52.856;6.534;2022-08-01T06:57:26;796.22;;;302.63;;
55206;SDS011;41079;52.856;6.534;2022-08-01T06:59:52;799.17;;;307.30;;
55206;SDS011;41079;52.856;6.534;2022-08-01T07:02:18;796.80;;;301.25;;
55206;SDS011;41079;52.856;6.534;2022-08-01T07:04:44;798.75;;;306.15;;
55206;SDS011;41079;52.856;6.534;2022-08-01T07:07:09;802.30;;;308.90;;
55206;SDS011;41079;52.856;6.534;2022-08-01T07:09:35;798.17;;;304.27;;
55206;SDS011;41079;52.856;6.534;2022-08-01T07:12:01;797.88;;;302.77;;
55206;SDS011;41079;52.856;6.534;2022-08-01T07:14:27;800.33;;;305.98;;
55206;SDS011;41079;52.856;6.534;2022-08-01T07:16:53;797.30;;;302.15;;
55206;SDS011;41079;52.856;6.534;2022-08-01T07:19:18;801.08;;;305.67;;
55206;SDS011;41079;52.856;6.534;2022-08-01T07:21:44;801.47;;;305.17;;
55206;SDS011;41079;52.856;6.534;2022-08-01T07:24:10;801.75;;;306.48;;
55206;SDS011;41079;52.856;6.534;2022-08-01T07:26:45;801.58;;;304.70;;
55206;SDS011;41079;52.856;6.534;2022-08-01T07:29:11;800.45;;;304.35;;
55206;SDS011;41079;52.856;6.534;2022-08-01T07:31:37;796.75;;;297.83;;
55206;SDS011;41079;52.856;6.534;2022-08-01T07:34:02;804.78;;;306.20;;
55206;SDS011;41079;52.856;6.534;2022-08-01T07:36:28;804.67;;;305.50;;
55206;SDS011;41079;52.856;6.534;2022-08-01T07:38:54;800.17;;;299.52;;
55206;SDS011;41079;52.856;6.534;2022-08-01T07:41:20;802.05;;;302.35;;
55206;SDS011;41079;52.856;6.534;2022-08-01T07:43:45;798.60;;;298.40;;
55206;SDS011;41079;52.856;6.534;2022-08-01T07:46:12;799.85;;;298.88;;
55206;SDS011;41079;52.856;6.534;2022-08-01T07:48:38;800.47;;;299.80;;
55206;SDS011;41079;52.856;6.534;2022-08-01T07:51:03;806.65;;;305.23;;
55206;SDS011;41079;52.856;6.534;2022-08-01T07:53:29;802.33;;;299.45;;
55206;SDS011;41079;52.856;6.534;2022-08-01T07:55:54;805.55;;;301.30;;
55206;SDS011;41079;52.856;6.534;2022-08-01T07:58:20;795.28;;;291.23;;
55206;SDS011;41079;52.856;6.534;2022-08-01T08:00:45;800.40;;;294.30;;
55206;SDS011;41079;52.856;6.534;2022-08-01T08:03:11;795.88;;;290.33;;
55206;SDS011;41079;52.856;6.534;2022-08-01T08:05:37;803.67;;;295.77;;
55206;SDS011;41079;52.856;6.534;2022-08-01T08:08:06;800.67;;;291.08;;
55206;SDS011;41079;52.856;6.534;2022-08-01T08:10:32;803.33;;;292.75;;
55206;SDS011;41079;52.856;6.534;2022-08-01T08:12:58;802.13;;;289.98;;
55206;SDS011;41079;52.856;6.534;2022-08-01T08:15:25;800.50;;;288.80;;
55206;SDS011;41079;52.856;6.534;2022-08-01T08:17:51;803.03;;;290.42;;
55206;SDS011;41079;52.856;6.534;2022-08-01T08:20:16;804.30;;;288.88;;
55206;SDS011;41079;52.856;6.534;2022-08-01T08:22:42;802.88;;;285.52;;
55206;SDS011;41079;52.856;6.534;2022-08-01T08:25:08;810.95;;;291.13;;
55206;SDS011;41079;52.856;6.534;2022-08-01T08:27:34;810.47;;;290.20;;
55206;SDS011;41079;52.856;6.534;2022-08-01T08:30:00;807.72;;;286.65;;
55206;SDS011;41079;52.856;6.534;2022-08-01T08:32:26;806.78;;;284.88;;
55206;SDS011;41079;52.856;6.534;2022-08-01T08:34:52;811.90;;;287.88;;
55206;SDS011;41079;52.856;6.534;2022-08-01T08:37:18;810.15;;;283.90;;
55206;SDS011;41079;52.856;6.534;2022-08-01T08:39:43;813.25;;;285.83;;
55206;SDS011;41079;52.856;6.534;2022-08-01T08:42:10;813.95;;;285.08;;
55206;SDS011;41079;52.856;6.534;2022-08-01T08:44:36;818.90;;;288.48;;
55206;SDS011;41079;52.856;6.534;2022-08-01T08:47:03;817.65;;;286.73;;
55206;SDS011;41079;52.856;6.534;2022-08-01T08:49:30;817.63;;;286.50;;
55206;SDS011;41079;52.856;6.534;2022-08-01T08:51:57;818.20;;;287.50;;
55206;SDS011;41079;52.856;6.534;2022-08-01T08:54:25;817.47;;;286.38;;
55206;SDS011;41079;52.856;6.534;2022-08-01T08:56:53;821.20;;;289.45;;
55206;SDS011;41079;52.856;6.534;2022-08-01T08:59:19;818.90;;;285.92;;
55206;SDS011;41079;52.856;6.534;2022-08-01T09:01:49;818.53;;;286.90;;
55206;SDS011;41079;52.856;6.534;2022-08-01T09:04:14;819.35;;;287.55;;
55206;SDS011;41079;52.856;6.534;2022-08-01T09:06:40;816.75;;;285.00;;
55206;SDS011;41079;52.856;6.534;2022-08-01T09:09:06;819.33;;;286.73;;
55206;SDS011;41079;52.856;6.534;2022-08-01T09:11:33;815.70;;;283.73;;
55206;SDS011;41079;52.856;6.534;2022-08-01T09:14:13;815.85;;;283.08;;
55206;SDS011;41079;52.856;6.534;2022-08-01T09:16:58;817.40;;;284.23;;
55206;SDS011;41079;52.856;6.534;2022-08-01T09:19:26;815.78;;;283.25;;
55206;SDS011;41079;52.856;6.534;2022-08-01T09:22:03;815.17;;;282.77;;
55206;SDS011;41079;52.856;6.534;2022-08-01T09:24:31;815.92;;;282.98;;
55206;SDS011;41079;52.856;6.534;2022-08-01T09:26:57;821.35;;;287.30;;
55206;SDS011;41079;52.856;6.534;2022-08-01T09:29:26;820.67;;;285.25;;
55206;SDS011;41079;52.856;6.534;2022-08-01T09:31:54;827.17;;;289.38;;
55206;SDS011;41079;52.856;6.534;2022-08-01T09:34:25;824.30;;;286.08;;
55206;SDS011;41079;52.856;6.534;2022-08-01T09:36:56;828.90;;;288.95;;
55206;SDS011;41079;52.856;6.534;2022-08-01T09:39:25;824.67;;;284.65;;
55206;SDS011;41079;52.856;6.534;2022-08-01T09:41:52;832.42;;;290.45;;
55206;SDS011;41079;52.856;6.534;2022-08-01T09:44:19;829.50;;;287.75;;
55206;SDS011;41079;52.856;6.534;2022-08-01T09:47:00;823.78;;;283.23;;
55206;SDS011;41079;52.856;6.534;2022-08-01T09:49:30;824.33;;;282.38;;
55206;SDS011;41079;52.856;6.534;2022-08-01T09:51:58;835.92;;;292.13;;
55206;SDS011;41079;52.856;6.534;2022-08-01T09:54:28;821.97;;;281.65;;
55206;SDS011;41079;52.856;6.534;2022-08-01T09:56:59;825.30;;;283.40;;
55206;SDS011;41079;52.856;6.534;2022-08-01T09:59:36;825.75;;;281.92;;
55206;SDS011;41079;52.856;6.534;2022-08-01T10:02:05;823.72;;;281.05;;
55206;SDS011;41079;52.856;6.534;2022-08-01T10:04:32;825.60;;;282.77;;
55206;SDS011;41079;52.856;6.534;2022-08-01T10:07:06;824.42;;;282.85;;
55206;SDS011;41079;52.856;6.534;2022-08-01T10:09:33;827.00;;;283.67;;
55206;SDS011;41079;52.856;6.534;2022-08-01T10:12:00;822.63;;;280.35;;
55206;SDS011;41079;52.856;6.534;2022-08-01T10:14:26;823.97;;;281.92;;
55206;SDS011;41079;52.856;6.534;2022-08-01T10:16:53;826.15;;;283.17;;
55206;SDS011;41079;52.856;6.534;2022-08-01T10:19:24;824.00;;;281.00;;
55206;SDS011;41079;52.856;6.534;2022-08-01T10:21:54;834.10;;;288.85;;
55206;SDS011;41079;52.856;6.534;2022-08-01T10:24:21;827.53;;;283.40;;
55206;SDS011;41079;52.856;6.534;2022-08-01T10:26:48;826.25;;;282.20;;
55206;SDS011;41079;52.856;6.534;2022-08-01T10:29:16;828.30;;;283.02;;
55206;SDS011;41079;52.856;6.534;2022-08-01T10:31:45;822.10;;;278.17;;
55206;SDS011;41079;52.856;6.534;2022-08-01T10:34:12;837.00;;;291.88;;
55206;SDS011;41079;52.856;6.534;2022-08-01T10:36:41;838.15;;;291.55;;
55206;SDS011;41079;52.856;6.534;2022-08-01T10:39:09;825.25;;;281.10;;
55206;SDS011;41079;52.856;6.534;2022-08-01T10:41:36;833.17;;;287.67;;
55206;SDS011;41079;52.856;6.534;2022-08-01T10:44:03;839.35;;;292.60;;
55206;SDS011;41079;52.856;6.534;2022-08-01T10:46:37;820.22;;;276.90;;
55206;SDS011;41079;52.856;6.534;2022-08-01T10:49:09;828.70;;;283.65;;
55206;SDS011;41079;52.856;6.534;2022-08-01T10:51:37;838.83;;;292.42;;
55206;SDS011;41079;52.856;6.534;2022-08-01T10:54:06;837.42;;;292.10;;
55206;SDS011;41079;52.856;6.534;2022-08-01T10:56:39;834.78;;;288.50;;
55206;SDS011;41079;52.856;6.534;2022-08-01T10:59:23;826.50;;;283.33;;
55206;SDS011;41079;52.856;6.534;2022-08-01T11:02:03;823.40;;;280.25;;
55206;SDS011;41079;52.856;6.534;2022-08-01T11:07:38;830.53;;;284.35;;
55206;SDS011;41079;52.856;6.534;2022-08-01T11:12:59;829.13;;;284.17;;
55206;SDS011;41079;52.856;6.534;2022-08-01T11:15:28;833.90;;;286.38;;
55206;SDS011;41079;52.856;6.534;2022-08-01T11:17:54;836.58;;;289.67;;
55206;SDS011;41079;52.856;6.534;2022-08-01T11:20:30;833.38;;;286.80;;
55206;SDS011;41079;52.856;6.534;2022-08-01T11:30:45;840.67;;;290.88;;
55206;SDS011;41079;52.856;6.534;2022-08-01T11:33:14;833.03;;;283.70;;
55206;SDS011;41079;52.856;6.534;2022-08-01T11:41:30;845.50;;;295.02;;
55206;SDS011;41079;52.856;6.534;2022-08-01T11:44:07;840.38;;;290.15;;
55206;SDS011;41079;52.856;6.534;2022-08-01T11:46:48;832.33;;;284.17;;
55206;SDS011;41079;52.856;6.534;2022-08-01T11:52:06;839.95;;;289.90;;
55206;SDS011;41079;52.856;6.534;2022-08-01T11:54:35;843.75;;;293.92;;
55206;SDS011;41079;52.856;6.534;2022-08-01T11:57:07;839.03;;;289.33;;
55206;SDS011;41079;52.856;6.534;2022-08-01T12:02:02;840.88;;;289.95;;
55206;SDS011;41079;52.856;6.534;2022-08-01T12:07:31;846.20;;;295.48;;
55206;SDS011;41079;52.856;6.534;2022-08-01T12:09:59;843.35;;;292.75;;
55206;SDS011;41079;52.856;6.534;2022-08-01T12:12:26;839.08;;;288.95;;
55206;SDS011;41079;52.856;6.534;2022-08-01T12:14:54;841.67;;;292.02;;
55206;SDS011;41079;52.856;6.534;2022-08-01T12:17:43;843.03;;;294.35;;
55206;SDS011;41079;52.856;6.534;2022-08-01T12:20:14;841.95;;;293.02;;
55206;SDS011;41079;52.856;6.534;2022-08-01T12:22:44;839.60;;;291.13;;
55206;SDS011;41079;52.856;6.534;2022-08-01T12:27:37;842.15;;;293.92;;
55206;SDS011;41079;52.856;6.534;2022-08-01T12:30:07;833.10;;;286.13;;
55206;SDS011;41079;52.856;6.534;2022-08-01T12:32:38;842.47;;;294.77;;
55206;SDS011;41079;52.856;6.534;2022-08-01T12:35:06;840.00;;;292.10;;
55206;SDS011;41079;52.856;6.534;2022-08-01T12:37:34;840.25;;;292.63;;
55206;SDS011;41079;52.856;6.534;2022-08-01T12:42:39;842.15;;;294.75;;
55206;SDS011;41079;52.856;6.534;2022-08-01T12:45:07;840.58;;;293.25;;
55206;SDS011;41079;52.856;6.534;2022-08-01T12:47:34;840.25;;;292.60;;
55206;SDS011;41079;52.856;6.534;2022-08-01T12:50:14;833.08;;;288.15;;
55206;SDS011;41079;52.856;6.534;2022-08-01T12:52:41;838.50;;;290.98;;
55206;SDS011;41079;52.856;6.534;2022-08-01T12:55:09;840.28;;;292.42;;
55206;SDS011;41079;52.856;6.534;2022-08-01T12:57:40;841.53;;;293.10;;
55206;SDS011;41079;52.856;6.534;2022-08-01T13:02:45;840.60;;;292.58;;
55206;SDS011;41079;52.856;6.534;2022-08-01T13:05:14;837.85;;;289.90;;
55206;SDS011;41079;52.856;6.534;2022-08-01T13:07:48;841.63;;;293.02;;
55206;SDS011;41079;52.856;6.534;2022-08-01T13:10:23;834.95;;;286.92;;
55206;SDS011;41079;52.856;6.534;2022-08-01T13:12:50;838.53;;;289.23;;
55206;SDS011;41079;52.856;6.534;2022-08-01T13:15:18;844.28;;;293.63;;
55206;SDS011;41079;52.856;6.534;2022-08-01T13:17:48;829.85;;;281.83;;
55206;SDS011;41079;52.856;6.534;2022-08-01T13:20:24;840.58;;;289.77;;
55206;SDS011;41079;52.856;6.534;2022-08-01T13:22:54;832.83;;;281.90;;
55206;SDS011;41079;52.856;6.534;2022-08-01T13:25:20;847.05;;;294.05;;
55206;SDS011;41079;52.856;6.534;2022-08-01T13:27:46;847.65;;;293.73;;
55206;SDS011;41079;52.856;6.534;2022-08-01T13:32:56;847.65;;;293.70;;
55206;SDS011;41079;52.856;6.534;2022-08-01T13:35:25;834.25;;;283.70;;
55206;SDS011;41079;52.856;6.534;2022-08-01T13:37:51;843.85;;;289.98;;
55206;SDS011;41079;52.856;6.534;2022-08-01T13:40:24;832.97;;;282.77;;
55206;SDS011;41079;52.856;6.534;2022-08-01T13:42:52;843.22;;;290.98;;
55206;SDS011;41079;52.856;6.534;2022-08-01T13:45:19;847.33;;;293.83;;
55206;SDS011;41079;52.856;6.534;2022-08-01T13:47:44;838.13;;;286.02;;
55206;SDS011;41079;52.856;6.534;2022-08-01T13:50:10;834.53;;;282.13;;
55206;SDS011;41079;52.856;6.534;2022-08-01T13:52:36;841.70;;;287.08;;
55206;SDS011;41079;52.856;6.534;2022-08-01T13:55:01;837.53;;;282.83;;
55206;SDS011;41079;52.856;6.534;2022-08-01T13:57:27;847.70;;;290.85;;
55206;SDS011;41079;52.856;6.534;2022-08-01T13:59:53;851.90;;;293.15;;
55206;SDS011;41079;52.856;6.534;2022-08-01T14:02:19;855.90;;;297.00;;
55206;SDS011;41079;52.856;6.534;2022-08-01T14:04:45;847.63;;;289.38;;
55206;SDS011;41079;52.856;6.534;2022-08-01T14:07:11;849.83;;;290.15;;
55206;SDS011;41079;52.856;6.534;2022-08-01T14:09:37;852.45;;;292.13;;
55206;SDS011;41079;52.856;6.534;2022-08-01T14:12:03;855.83;;;295.83;;
55206;SDS011;41079;52.856;6.534;2022-08-01T14:14:28;849.03;;;290.23;;
55206;SDS011;41079;52.856;6.534;2022-08-01T14:16:55;853.95;;;294.75;;
55206;SDS011;41079;52.856;6.534;2022-08-01T14:19:21;852.33;;;293.80;;
55206;SDS011;41079;52.856;6.534;2022-08-01T14:21:46;853.45;;;295.60;;
55206;SDS011;41079;52.856;6.534;2022-08-01T14:24:12;848.13;;;289.95;;
55206;SDS011;41079;52.856;6.534;2022-08-01T14:26:37;843.20;;;285.73;;
55206;SDS011;41079;52.856;6.534;2022-08-01T14:29:03;854.40;;;295.23;;
55206;SDS011;41079;52.856;6.534;2022-08-01T14:31:28;854.55;;;295.25;;
55206;SDS011;41079;52.856;6.534;2022-08-01T14:33:54;851.67;;;292.35;;
55206;SDS011;41079;52.856;6.534;2022-08-01T14:36:20;852.53;;;294.15;;
55206;SDS011;41079;52.856;6.534;2022-08-01T14:38:46;849.67;;;291.65;;
55206;SDS011;41079;52.856;6.534;2022-08-01T14:41:12;840.42;;;284.63;;
55206;SDS011;41079;52.856;6.534;2022-08-01T14:43:38;842.72;;;286.08;;
55206;SDS011;41079;52.856;6.534;2022-08-01T14:46:03;845.78;;;288.75;;